Time;durP1;ratioP1;P1;durP2;ratioP2;P2;SDS_P1;SDS_P2;PMS_P1;PMS_P2;Temp;Humidity;BMP_temperature;BMP_pressure;BME280_temperature;BME280_humidity;BME280_pressure;Samples;Min_cycle;Max_cycle;Signal;HPM_P1;HPM_P2
2023/10/07 00:02:59;;;;;;;9.13;6.38;;;10.70;99.90;;;;;;4978018;28;20085;-88
2023/10/07 00:05:39;;;;;;;8.23;7.43;;;10.70;99.90;;;;;;4977828;28;20019;-88
2023/10/07 00:08:12;;;;;;;8.90;6.68;;;10.70;99.90;;;;;;4978018;28;20097;-89
2023/10/07 00:10:39;;;;;;;8.98;7.70;;;10.70;99.90;;;;;;4970450;28;20492;-89
2023/10/07 00:13:12;;;;;;;9.55;7.03;;;10.70;99.90;;;;;;4979135;28;20030;-89
2023/10/07 00:15:42;;;;;;;10.43;7.75;;;10.70;99.90;;;;;;4978860;28;20515;-89
2023/10/07 00:18:12;;;;;;;9.45;7.82;;;10.70;99.90;;;;;;4977383;28;20034;-89
2023/10/07 00:20:41;;;;;;;10.32;7.10;;;10.70;99.90;;;;;;4977215;28;20205;-89
2023/10/07 00:23:09;;;;;;;8.80;7.32;;;10.70;99.90;;;;;;4978431;28;20031;-89
2023/10/07 00:25:38;;;;;;;;;;;10.60;99.90;;;;;;4979724;28;20469;-89
2023/10/07 00:28:18;;;;;;;9.98;7.70;;;10.60;99.90;;;;;;4976065;28;20492;-88
2023/10/07 00:30:45;;;;;;;9.50;8.02;;;10.60;99.90;;;;;;4973993;28;20026;-88
2023/10/07 00:33:15;;;;;;;9.98;8.23;;;10.50;99.90;;;;;;4978041;28;20093;-89
2023/10/07 00:35:41;;;;;;;7.78;6.93;;;10.50;99.90;;;;;;4976959;28;20026;-89
2023/10/07 00:38:14;;;;;;;7.95;6.22;;;10.50;99.90;;;;;;4975119;28;20019;-88
2023/10/07 00:40:53;;;;;;;10.48;7.30;;;10.60;99.90;;;;;;4979721;28;20054;-90
2023/10/07 00:43:27;;;;;;;8.25;7.45;;;10.50;99.90;;;;;;4969545;28;20030;-89
2023/10/07 00:46:08;;;;;;;10.95;8.57;;;10.50;99.90;;;;;;4978110;28;20053;-89
2023/10/07 00:51:17;;;;;;;9.05;6.80;;;10.40;99.90;;;;;;4979123;28;20556;-89
2023/10/07 00:53:51;;;;;;;10.75;7.50;;;10.40;99.90;;;;;;4979069;28;20019;-90
2023/10/07 00:56:17;;;;;;;8.50;6.75;;;10.40;99.90;;;;;;4978160;28;21073;-90
2023/10/07 00:58:46;;;;;;;11.32;6.90;;;10.40;99.90;;;;;;4977992;28;20027;-90
2023/10/07 01:01:13;;;;;;;9.30;8.02;;;10.40;99.90;;;;;;4962325;28;20023;-90
2023/10/07 01:03:48;;;;;;;10.05;7.97;;;10.40;99.90;;;;;;4980999;28;20050;-91
2023/10/07 01:06:26;;;;;;;8.00;7.07;;;10.30;99.90;;;;;;4994885;28;19999;-91
2023/10/07 01:09:07;;;;;;;11.55;7.60;;;10.30;99.90;;;;;;4988051;28;20023;-89
2023/10/07 01:11:37;;;;;;;9.50;8.30;;;10.30;99.90;;;;;;4973839;28;20031;-88
2023/10/07 01:14:05;;;;;;;9.63;8.70;;;10.30;99.90;;;;;;4974916;28;20030;-88
2023/10/07 01:16:40;;;;;;;9.50;8.30;;;10.30;99.90;;;;;;4976922;28;20216;-87
2023/10/07 01:19:36;;;;;;;9.45;8.43;;;10.30;99.90;;;;;;4973765;28;20020;-88
2023/10/07 01:22:12;;;;;;;9.90;7.78;;;10.30;99.90;;;;;;4975826;28;20038;-89
2023/10/07 01:27:34;;;;;;;10.77;7.70;;;10.40;99.90;;;;;;4977363;28;20031;-88
2023/10/07 01:30:00;;;;;;;10.43;7.85;;;10.30;99.90;;;;;;4977342;28;20098;-89
2023/10/07 01:32:42;;;;;;;11.07;7.72;;;10.40;99.90;;;;;;4970831;28;20091;-89
2023/10/07 01:35:11;;;;;;;10.15;7.68;;;10.40;99.90;;;;;;4976309;28;20033;-88
2023/10/07 01:37:50;;;;;;;9.43;7.65;;;10.40;99.90;;;;;;4976408;28;20019;-89
2023/10/07 01:40:17;;;;;;;9.07;7.45;;;10.40;99.90;;;;;;4977364;28;20405;-90
2023/10/07 01:42:44;;;;;;;8.45;6.00;;;10.30;99.90;;;;;;4981239;28;20077;-89
2023/10/07 01:45:22;;;;;;;8.88;7.82;;;10.20;99.90;;;;;;4979245;28;20023;-89
2023/10/07 01:47:55;;;;;;;9.32;6.50;;;10.30;99.90;;;;;;4984152;28;20039;-88
2023/10/07 01:50:24;;;;;;;8.73;6.63;;;10.10;99.90;;;;;;4990767;28;20031;-88
2023/10/07 01:52:55;;;;;;;10.20;6.65;;;10.20;99.90;;;;;;4991712;28;20030;-90
2023/10/07 01:55:26;;;;;;;9.55;7.80;;;10.10;99.90;;;;;;4989711;28;20030;-90
2023/10/07 01:57:52;;;;;;;10.70;8.52;;;10.10;99.90;;;;;;4991099;28;20039;-89
2023/10/07 02:00:43;;;;;;;10.18;8.70;;;9.90;99.90;;;;;;4987529;28;20117;-89
2023/10/07 02:03:13;;;;;;;10.35;9.27;;;9.90;99.90;;;;;;4980186;28;20034;-89
2023/10/07 02:05:46;;;;;;;8.85;7.60;;;9.90;99.90;;;;;;4979378;28;20058;-88
2023/10/07 02:08:18;;;;;;;10.18;7.07;;;9.90;99.90;;;;;;4981156;28;20101;-89
2023/10/07 02:10:46;;;;;;;8.38;7.57;;;9.90;99.90;;;;;;4980851;28;20027;-88
2023/10/07 02:13:19;;;;;;;9.15;7.13;;;9.90;99.90;;;;;;4981821;28;20086;-89
2023/10/07 02:15:49;;;;;;;7.80;6.97;;;9.90;99.90;;;;;;4992506;28;20011;-91
2023/10/07 02:18:15;;;;;;;9.32;7.78;;;9.90;99.90;;;;;;5000557;28;20018;-91
2023/10/07 02:20:49;;;;;;;10.32;9.38;;;9.90;99.90;;;;;;5000991;28;20015;-91
2023/10/07 02:23:32;;;;;;;10.77;8.80;;;9.90;99.90;;;;;;5000412;28;20030;-91
2023/10/07 02:25:59;;;;;;;10.95;8.20;;;9.90;99.90;;;;;;5000309;28;20022;-90
2023/10/07 02:28:29;;;;;;;9.77;8.77;;;9.90;99.90;;;;;;5000755;28;20099;-90
2023/10/07 02:31:01;;;;;;;10.85;8.63;;;9.80;99.90;;;;;;4998217;28;20022;-90
2023/10/07 02:33:41;;;;;;;8.80;8.00;;;9.80;99.90;;;;;;4997389;28;20046;-90
2023/10/07 02:36:10;;;;;;;8.70;8.00;;;9.80;99.90;;;;;;4998609;28;20038;-92
2023/10/07 02:38:38;;;;;;;9.70;8.80;;;9.80;99.90;;;;;;4995671;28;20027;-93
2023/10/07 02:41:15;;;;;;;11.55;7.93;;;9.80;99.90;;;;;;4987058;28;20054;-88
2023/10/07 02:43:43;;;;;;;9.18;8.27;;;9.80;99.90;;;;;;4974448;28;20046;-89
2023/10/07 02:46:22;;;;;;;9.73;8.68;;;9.80;99.90;;;;;;4970321;28;20568;-88
2023/10/07 02:48:48;;;;;;;9.90;8.73;;;9.70;99.90;;;;;;4980997;28;20019;-89
2023/10/07 02:51:14;;;;;;;8.80;7.93;;;9.60;99.90;;;;;;4980207;28;20090;-89
2023/10/07 02:53:39;;;;;;;9.18;8.23;;;9.60;99.90;;;;;;4980321;28;20027;-88
2023/10/07 02:56:29;;;;;;;12.00;8.48;;;9.60;99.90;;;;;;4980282;28;20030;-89
2023/10/07 02:58:59;;;;;;;10.18;7.80;;;9.60;99.90;;;;;;4979578;28;20050;-90
2023/10/07 03:01:26;;;;;;;9.48;8.43;;;9.60;99.90;;;;;;4972439;28;20541;-89
2023/10/07 03:03:52;;;;;;;10.45;7.65;;;9.60;99.90;;;;;;4978556;28;20023;-90
2023/10/07 03:06:18;;;;;;;10.38;8.43;;;9.60;99.90;;;;;;4979973;28;20045;-88
2023/10/07 03:11:11;;;;;;;9.10;6.75;;;9.60;99.90;;;;;;4979709;28;20089;-89
2023/10/07 03:13:45;;;;;;;9.70;8.15;;;9.60;99.90;;;;;;4995838;28;20022;-89
2023/10/07 03:18:48;;;;;;;10.82;9.43;;;9.50;99.90;;;;;;4978914;28;20023;-89
2023/10/07 03:21:15;;;;;;;9.00;7.93;;;9.60;99.90;;;;;;4978030;28;20074;-90
2023/10/07 03:23:58;;;;;;;9.93;8.90;;;9.50;99.90;;;;;;4979604;28;20027;-90
2023/10/07 03:26:24;;;;;;;11.93;10.98;;;9.50;99.90;;;;;;4978967;28;20474;-90
2023/10/07 03:28:55;;;;;;;8.60;6.32;;;9.50;99.90;;;;;;4983243;28;20025;-89
2023/10/07 03:32:12;;;;;;;9.15;7.90;;;9.50;99.90;;;;;;4977955;28;20046;-88
2023/10/07 03:34:09;;;;;;;7.88;7.00;;;9.50;99.90;;;;;;4963562;28;20042;-88
2023/10/07 03:36:44;;;;;;;10.25;8.43;;;9.40;99.90;;;;;;4977371;28;20043;-90
2023/10/07 03:41:47;;;;;;;9.00;6.47;;;9.40;99.90;;;;;;4975944;28;20118;-89
2023/10/07 03:44:18;;;;;;;10.32;7.40;;;9.40;99.90;;;;;;4979037;28;20412;-88
2023/10/07 03:46:47;;;;;;;8.75;7.43;;;9.50;99.90;;;;;;4978448;28;20532;-89
2023/10/07 03:49:16;;;;;;;8.88;6.65;;;9.50;99.90;;;;;;4980025;28;20050;-87
2023/10/07 03:51:45;;;;;;;8.60;7.30;;;9.40;99.90;;;;;;4977095;28;20046;-89
2023/10/07 03:54:15;;;;;;;9.98;7.88;;;9.40;99.90;;;;;;4988309;28;20027;-88
2023/10/07 03:56:42;;;;;;;9.25;8.35;;;9.50;99.90;;;;;;4980726;28;20481;-89
2023/10/07 03:59:08;;;;;;;9.43;8.65;;;9.50;99.90;;;;;;4979026;28;20328;-88
2023/10/07 04:01:42;;;;;;;7.70;5.85;;;9.50;99.90;;;;;;4979962;28;20425;-89
2023/10/07 04:04:11;;;;;;;10.10;9.07;;;9.50;99.90;;;;;;4978192;28;20034;-89
2023/10/07 04:06:41;;;;;;;9.50;8.70;;;9.50;99.90;;;;;;4979090;28;20078;-88
2023/10/07 04:09:06;;;;;;;9.00;7.25;;;9.40;99.90;;;;;;4993805;28;20030;-89
2023/10/07 04:11:34;;;;;;;8.65;7.45;;;9.40;99.90;;;;;;4994512;28;20015;-88
2023/10/07 04:14:06;;;;;;;10.23;9.38;;;9.40;99.90;;;;;;4976158;28;20020;-90
2023/10/07 04:16:33;;;;;;;9.18;8.38;;;9.40;99.90;;;;;;4973924;28;20097;-90
2023/10/07 04:21:45;;;;;;;9.18;7.93;;;9.40;99.90;;;;;;4978495;28;20031;-88
2023/10/07 04:24:12;;;;;;;10.32;7.85;;;9.40;99.90;;;;;;4976619;28;20022;-89
2023/10/07 04:26:42;;;;;;;8.88;7.72;;;9.30;99.90;;;;;;4976223;28;20034;-89
2023/10/07 04:29:17;;;;;;;9.18;7.90;;;9.30;99.90;;;;;;4977371;28;20023;-89
2023/10/07 04:31:51;;;;;;;7.15;6.13;;;9.30;99.90;;;;;;4977545;28;20441;-89
2023/10/07 04:34:18;;;;;;;7.80;6.80;;;9.20;99.90;;;;;;4977388;28;20384;-90
2023/10/07 04:39:51;;;;;;;8.35;7.28;;;9.10;99.90;;;;;;4969950;28;20556;-90
2023/10/07 04:42:34;;;;;;;9.18;8.27;;;9.10;99.90;;;;;;4976014;28;20416;-89
2023/10/07 04:45:24;;;;;;;10.00;7.43;;;9.00;99.90;;;;;;4972943;28;20054;-89
2023/10/07 04:48:01;;;;;;;11.30;8.82;;;9.00;99.90;;;;;;4977225;28;20035;-89
2023/10/07 04:50:37;;;;;;;7.90;7.10;;;9.00;99.90;;;;;;4978400;28;20026;-88
2023/10/07 04:53:03;;;;;;;8.02;5.32;;;9.00;99.90;;;;;;4979466;28;20437;-90
2023/10/07 04:55:32;;;;;;;8.48;7.55;;;9.10;99.90;;;;;;4978960;28;20043;-90
2023/10/07 04:57:58;;;;;;;9.38;8.57;;;9.10;99.90;;;;;;4975310;28;20034;-89
2023/10/07 05:02:59;;;;;;;9.15;8.25;;;9.00;99.90;;;;;;4977989;28;20031;-89
2023/10/07 05:05:30;;;;;;;9.90;8.93;;;9.10;99.90;;;;;;4977240;28;20042;-89
2023/10/07 05:08:17;;;;;;;8.63;7.78;;;9.10;99.90;;;;;;4975523;28;20023;-89
2023/10/07 05:10:43;;;;;;;8.98;8.05;;;9.00;99.90;;;;;;4970542;28;20039;-90
2023/10/07 05:13:10;;;;;;;11.27;7.65;;;9.00;99.90;;;;;;4976071;28;20053;-89
2023/10/07 05:15:39;;;;;;;9.00;8.13;;;9.00;99.90;;;;;;4981813;28;20022;-87
2023/10/07 05:18:13;;;;;;;8.55;7.68;;;8.90;99.90;;;;;;4980369;28;20050;-89
2023/10/07 05:20:41;;;;;;;9.23;8.27;;;8.90;99.90;;;;;;4977915;28;20030;-88
2023/10/07 05:23:07;;;;;;;10.07;9.05;;;8.80;99.90;;;;;;4975346;28;20030;-88
2023/10/07 05:25:43;;;;;;;9.93;9.02;;;8.80;99.90;;;;;;4974936;28;20050;-89
2023/10/07 05:28:16;;;;;;;8.27;7.05;;;8.80;99.90;;;;;;4973249;28;20045;-90
2023/10/07 05:30:53;;;;;;;9.02;7.32;;;8.80;99.90;;;;;;4971232;28;20054;-89
2023/10/07 05:33:26;;;;;;;9.80;7.93;;;8.80;99.90;;;;;;4974840;28;20615;-90
2023/10/07 05:36:14;;;;;;;10.57;9.00;;;8.80;99.90;;;;;;4975229;28;20031;-87
2023/10/07 05:38:44;;;;;;;10.70;9.27;;;8.70;99.90;;;;;;4969594;28;20101;-86
2023/10/07 05:41:14;;;;;;;14.82;9.90;;;9.10;99.90;;;;;;4976170;28;20023;-87
2023/10/07 05:43:44;;;;;;;9.18;8.32;;;9.20;99.90;;;;;;4975760;28;20019;-91
2023/10/07 05:46:13;;;;;;;8.98;7.63;;;9.30;99.90;;;;;;4977008;28;20468;-91
2023/10/07 05:48:40;;;;;;;9.57;8.45;;;9.20;99.90;;;;;;4990968;28;20030;-90
2023/10/07 05:51:09;;;;;;;9.20;7.38;;;9.10;99.90;;;;;;4976931;28;20023;-90
2023/10/07 05:53:39;;;;;;;9.43;6.35;;;9.10;99.90;;;;;;4975706;28;20442;-91
2023/10/07 05:56:06;;;;;;;10.40;9.45;;;9.10;99.90;;;;;;4975561;28;20026;-91
2023/10/07 05:58:37;;;;;;;10.38;9.30;;;9.00;99.90;;;;;;4970912;28;20031;-92
2023/10/07 06:01:03;;;;;;;8.75;7.95;;;9.00;99.90;;;;;;4973360;28;20031;-91
2023/10/07 06:03:30;;;;;;;12.25;8.57;;;9.00;99.90;;;;;;4975710;28;20433;-90
2023/10/07 06:05:59;;;;;;;10.10;8.88;;;9.00;99.90;;;;;;4974265;28;20026;-90
2023/10/07 06:08:26;;;;;;;9.10;8.20;;;9.00;99.90;;;;;;4966022;28;20050;-91
2023/10/07 06:10:52;;;;;;;11.13;10.07;;;8.90;99.90;;;;;;4974875;28;20105;-92
2023/10/07 06:13:18;;;;;;;8.68;7.85;;;8.90;99.90;;;;;;4976220;28;20038;-93
2023/10/07 06:15:45;;;;;;;11.48;10.48;;;8.90;99.90;;;;;;4975948;28;20023;-90
2023/10/07 06:18:11;;;;;;;9.02;8.13;;;8.90;99.90;;;;;;4989734;28;20022;-92
2023/10/07 06:20:46;;;;;;;9.90;8.98;;;8.90;99.90;;;;;;4975670;28;20053;-92
2023/10/07 06:23:14;;;;;;;9.98;8.45;;;8.90;99.90;;;;;;4975547;28;20027;-92
2023/10/07 06:25:42;;;;;;;11.38;9.55;;;8.90;99.90;;;;;;4976626;28;20087;-91
2023/10/07 06:28:10;;;;;;;10.38;9.45;;;8.80;99.90;;;;;;4971403;28;20091;-90
2023/10/07 06:30:38;;;;;;;9.55;8.65;;;8.90;99.90;;;;;;4980461;28;20486;-93
2023/10/07 06:33:04;;;;;;;9.48;8.10;;;9.00;99.90;;;;;;4981928;28;20034;-92
2023/10/07 06:35:32;;;;;;;11.07;10.05;;;9.00;99.90;;;;;;4980475;28;20030;-91
2023/10/07 06:37:58;;;;;;;10.10;9.10;;;9.00;99.90;;;;;;4983641;28;20038;-91
2023/10/07 06:42:51;;;;;;;10.35;9.35;;;9.10;99.90;;;;;;4990901;28;20053;-93
2023/10/07 06:45:17;;;;;;;10.20;9.13;;;9.10;99.90;;;;;;4994458;28;20087;-92
2023/10/07 06:47:46;;;;;;;9.43;8.23;;;9.20;99.90;;;;;;4998649;28;20026;-94
2023/10/07 06:50:17;;;;;;;9.52;8.73;;;9.30;99.90;;;;;;4979443;28;20601;-91
2023/10/07 06:52:44;;;;;;;10.32;9.40;;;9.40;99.90;;;;;;4977555;28;20027;-92
2023/10/07 06:55:15;;;;;;;10.40;9.23;;;9.40;99.90;;;;;;4979203;28;20022;-92
2023/10/07 06:57:45;;;;;;;9.98;8.98;;;9.50;99.90;;;;;;4978090;28;20015;-91
2023/10/07 07:00:22;;;;;;;12.38;11.13;;;9.40;99.90;;;;;;4977710;28;20090;-90
2023/10/07 07:02:54;;;;;;;14.00;11.07;;;9.50;99.90;;;;;;4980491;28;20437;-92
2023/10/07 07:05:22;;;;;;;10.27;8.48;;;9.60;99.90;;;;;;4981529;28;20114;-92
2023/10/07 07:07:52;;;;;;;10.43;9.52;;;9.60;99.90;;;;;;4981130;28;20082;-89
2023/10/07 07:10:27;;;;;;;10.65;9.70;;;9.70;99.90;;;;;;4988184;28;20038;-93
2023/10/07 07:13:04;;;;;;;10.70;9.10;;;9.80;99.90;;;;;;5012070;28;20062;-91
2023/10/07 07:15:36;;;;;;;9.55;8.65;;;9.90;99.90;;;;;;4986731;28;20026;-89
2023/10/07 07:18:14;;;;;;;9.35;8.07;;;10.00;99.90;;;;;;4979943;28;20397;-91
2023/10/07 07:21:14;;;;;;;9.07;7.80;;;10.10;99.90;;;;;;4977170;28;20085;-91
2023/10/07 07:23:43;;;;;;;8.55;7.47;;;10.30;99.90;;;;;;4972498;28;20178;-91
2023/10/07 07:26:12;;;;;;;10.43;9.32;;;10.50;99.90;;;;;;4978567;28;20086;-91
2023/10/07 07:28:45;;;;;;;8.52;7.70;;;10.60;99.90;;;;;;4978587;28;20033;-92
2023/10/07 07:31:18;;;;;;;8.00;6.72;;;10.70;99.90;;;;;;4980466;28;20090;-91
2023/10/07 07:33:50;;;;;;;8.57;7.72;;;10.80;99.90;;;;;;4978231;28;20057;-91
2023/10/07 07:39:42;;;;;;;8.15;7.45;;;11.00;99.90;;;;;;4974806;28;20037;-92
2023/10/07 07:42:22;;;;;;;9.02;7.72;;;11.00;99.90;;;;;;4974656;28;20058;-92
2023/10/07 07:44:57;;;;;;;9.25;8.38;;;11.10;99.90;;;;;;5237380;23;20090;-92
2023/10/07 07:47:24;;;;;;;9.10;8.23;;;11.20;99.90;;;;;;4992124;28;20046;-91
2023/10/07 07:49:51;;;;;;;8.45;7.70;;;11.40;99.90;;;;;;5007781;28;20061;-92
2023/10/07 07:52:19;;;;;;;10.60;7.78;;;11.40;99.90;;;;;;5017798;28;20046;-93
2023/10/07 07:54:45;;;;;;;6.53;5.78;;;11.50;99.90;;;;;;5013647;28;20029;-92
2023/10/07 07:57:12;;;;;;;6.68;5.93;;;11.50;99.90;;;;;;5006778;28;20034;-91
2023/10/07 07:59:38;;;;;;;7.88;7.18;;;11.60;99.90;;;;;;5014928;28;20030;-90
2023/10/07 08:02:15;;;;;;;;;;;;;;;;;;;;;
2023/10/07 08:04:46;;;;;;;7.97;7.28;;;11.60;99.90;;;;;;5019714;28;20022;-91
2023/10/07 08:07:24;;;;;;;7.85;7.05;;;11.50;99.90;;;;;;5010405;28;20049;-93
2023/10/07 08:10:03;;;;;;;7.30;5.18;;;11.50;99.90;;;;;;5010329;28;20024;-92
2023/10/07 08:12:31;;;;;;;7.22;5.72;;;11.60;99.90;;;;;;5002608;28;20048;-90
2023/10/07 08:15:09;;;;;;;;;;;11.70;99.90;;;;;;5017623;28;20318;-91
2023/10/07 08:17:37;;;;;;;7.32;5.32;;;11.80;99.90;;;;;;5009741;28;20248;-92
2023/10/07 08:20:37;;;;;;;7.78;5.72;;;12.10;99.90;;;;;;5019973;28;20030;-91
2023/10/07 08:23:35;;;;;;;5.88;5.38;;;12.40;99.50;;;;;;5182596;23;20043;-90
2023/10/07 08:26:12;;;;;;;7.30;6.60;;;12.70;97.80;;;;;;5004731;28;20045;-91
2023/10/07 08:29:19;;;;;;;7.03;4.93;;;13.10;97.10;;;;;;5004271;28;20529;-91
2023/10/07 08:31:39;;;;;;;8.15;5.22;;;13.30;96.20;;;;;;5008032;28;20112;-93
2023/10/07 08:36:44;;;;;;;5.10;4.65;;;13.70;93.40;;;;;;4994965;28;20503;-91
2023/10/07 08:39:10;;;;;;;6.53;5.28;;;13.80;91.90;;;;;;4982700;28;20520;-90
2023/10/07 08:41:40;;;;;;;6.55;4.38;;;13.80;91.70;;;;;;4989983;28;20110;-90
2023/10/07 08:44:16;;;;;;;5.00;4.50;;;13.90;92.50;;;;;;5000284;28;20038;-90
2023/10/07 08:47:10;;;;;;;7.20;4.47;;;14.00;91.90;;;;;;5010883;28;20057;-90
2023/10/07 08:49:43;;;;;;;5.65;3.90;;;14.10;90.20;;;;;;5009035;28;20056;-90
2023/10/07 08:52:12;;;;;;;4.60;3.50;;;14.20;89.50;;;;;;5003924;28;20007;-90
2023/10/07 08:54:44;;;;;;;5.18;4.50;;;14.20;87.10;;;;;;5001802;28;20070;-90
2023/10/07 08:57:22;;;;;;;5.25;4.75;;;14.20;86.00;;;;;;4974791;28;20062;-89
2023/10/07 08:59:52;;;;;;;5.07;3.70;;;14.30;86.90;;;;;;5007750;28;20085;-90
2023/10/07 09:02:26;;;;;;;6.38;4.60;;;14.30;86.10;;;;;;4975136;28;20023;-91
2023/10/07 09:04:54;;;;;;;4.25;3.08;;;14.30;86.70;;;;;;4983207;28;20132;-90
2023/10/07 09:07:20;;;;;;;4.95;4.28;;;14.40;86.10;;;;;;4984958;28;20035;-90
2023/10/07 09:09:47;;;;;;;4.80;3.97;;;14.40;86.30;;;;;;4987536;28;20048;-90
2023/10/07 09:12:15;;;;;;;6.53;4.30;;;14.60;86.10;;;;;;4979713;28;20037;-90
2023/10/07 09:17:45;;;;;;;5.03;4.35;;;15.00;83.90;;;;;;5045677;23;20459;-91
2023/10/07 09:20:29;;;;;;;4.75;4.15;;;15.20;82.70;;;;;;5011047;28;20022;-91
2023/10/07 09:23:00;;;;;;;5.75;2.90;;;15.40;83.00;;;;;;5001144;28;20397;-91
2023/10/07 09:25:33;;;;;;;4.90;3.05;;;15.70;82.80;;;;;;5012923;28;20046;-91
2023/10/07 09:28:01;;;;;;;5.40;3.72;;;15.90;78.20;;;;;;4996369;28;20049;-91
2023/10/07 09:30:44;;;;;;;6.00;3.80;;;16.00;76.90;;;;;;4995262;28;20022;-91
2023/10/07 09:33:13;;;;;;;4.25;3.85;;;15.90;77.80;;;;;;4962982;28;20497;-91
2023/10/07 09:36:22;;;;;;;4.93;2.97;;;15.90;76.90;;;;;;4997374;28;20027;-90
2023/10/07 09:38:43;;;;;;;5.28;3.55;;;16.00;76.90;;;;;;4998340;28;20031;-92
2023/10/07 09:41:12;;;;;;;5.13;4.53;;;16.00;75.70;;;;;;4976614;28;20034;-91
2023/10/07 09:43:43;;;;;;;5.35;3.65;;;15.80;76.70;;;;;;4984778;28;20027;-90
2023/10/07 09:46:10;;;;;;;6.03;4.13;;;15.80;76.20;;;;;;4979680;28;20027;-91
2023/10/07 09:48:41;;;;;;;6.25;5.65;;;16.00;75.70;;;;;;4985394;28;20087;-90
2023/10/07 09:51:24;;;;;;;5.15;3.40;;;16.00;76.60;;;;;;4974088;28;20034;-90
2023/10/07 09:54:16;;;;;;;4.22;3.88;;;16.10;76.50;;;;;;4985400;28;20035;-89
2023/10/07 09:57:06;;;;;;;6.13;3.85;;;16.40;75.20;;;;;;4998350;28;20077;-90
2023/10/07 10:00:37;;;;;;;3.97;3.40;;;16.40;74.80;;;;;;4973424;28;20033;-91
2023/10/07 10:03:30;;;;;;;4.57;3.33;;;16.70;74.80;;;;;;4998782;28;20030;-91
2023/10/07 10:05:56;;;;;;;6.85;3.97;;;16.90;72.90;;;;;;4986094;28;20019;-91
2023/10/07 10:08:55;;;;;;;5.65;3.45;;;17.00;73.50;;;;;;4984615;28;20023;-91
2023/10/07 10:11:38;;;;;;;5.10;3.65;;;16.90;72.80;;;;;;4980665;28;20188;-90
2023/10/07 10:16:45;;;;;;;6.10;3.17;;;17.10;73.70;;;;;;5021521;28;20014;-93
2023/10/07 10:19:25;;;;;;;6.68;4.32;;;17.10;72.20;;;;;;5002646;28;20102;-89
2023/10/07 10:21:52;;;;;;;4.57;2.30;;;17.20;73.10;;;;;;4985496;28;20374;-90
2023/10/07 10:24:35;;;;;;;3.63;3.33;;;17.30;73.10;;;;;;5002371;28;20020;-91
2023/10/07 10:27:08;;;;;;;5.13;4.60;;;17.30;73.30;;;;;;4986829;28;20019;-92
2023/10/07 10:29:52;;;;;;;5.00;4.00;;;17.40;72.10;;;;;;4982660;28;20061;-91
2023/10/07 10:32:28;;;;;;;5.07;3.72;;;17.40;72.40;;;;;;4984723;28;20057;-92
2023/10/07 10:35:23;;;;;;;4.45;3.92;;;17.60;72.50;;;;;;5000390;28;20041;-90
2023/10/07 10:37:59;;;;;;;3.63;3.33;;;17.70;70.10;;;;;;4980175;28;20605;-91
2023/10/07 10:40:31;;;;;;;3.75;3.35;;;17.70;68.00;;;;;;4985401;28;20042;-91
2023/10/07 10:43:01;;;;;;;5.75;4.45;;;17.60;68.00;;;;;;4992818;28;20030;-90
2023/10/07 10:45:44;;;;;;;4.55;4.15;;;17.70;69.10;;;;;;4986916;28;20049;-90
2023/10/07 10:48:25;;;;;;;3.85;3.55;;;17.70;68.30;;;;;;4990647;28;20029;-91
2023/10/07 10:51:05;;;;;;;4.88;4.38;;;17.80;67.40;;;;;;5001951;28;20404;-91
2023/10/07 10:53:46;;;;;;;4.97;3.40;;;17.90;67.60;;;;;;4981789;28;20038;-90
2023/10/07 10:56:18;;;;;;;5.10;4.60;;;18.10;68.00;;;;;;4964074;28;20532;-91
2023/10/07 10:59:04;;;;;;;3.42;3.13;;;18.20;66.60;;;;;;4970218;28;20688;-92
2023/10/07 11:05:22;;;;;;;4.93;4.50;;;18.40;65.30;;;;;;4968296;28;20047;-92
2023/10/07 11:07:50;;;;;;;4.03;3.72;;;18.20;63.50;;;;;;4979703;28;20026;-91
2023/10/07 11:10:23;;;;;;;3.08;2.78;;;18.00;61.90;;;;;;5004530;28;20049;-93
2023/10/07 11:13:30;;;;;;;4.25;3.75;;;18.30;63.20;;;;;;4990073;28;20030;-93
2023/10/07 11:15:59;;;;;;;5.25;4.55;;;18.40;62.50;;;;;;4974546;28;20046;-93
2023/10/07 11:18:27;;;;;;;4.50;3.67;;;18.50;62.60;;;;;;4970951;28;20027;-92
2023/10/07 11:20:58;;;;;;;4.63;3.60;;;18.40;62.00;;;;;;4987327;28;20041;-93
2023/10/07 11:23:30;;;;;;;4.18;3.08;;;18.40;64.80;;;;;;4989135;28;20027;-92
2023/10/07 11:25:56;;;;;;;4.50;4.10;;;18.50;64.70;;;;;;5007773;23;20069;-89
2023/10/07 11:28:22;;;;;;;5.13;3.80;;;18.60;62.30;;;;;;5018895;28;20028;-88
2023/10/07 11:30:51;;;;;;;4.18;3.88;;;18.50;62.60;;;;;;5034370;28;20030;-90
2023/10/07 11:33:17;;;;;;;4.00;3.55;;;18.60;61.80;;;;;;5010481;28;20026;-88
2023/10/07 11:35:46;;;;;;;3.78;2.72;;;18.70;62.20;;;;;;5019851;28;20033;-89
2023/10/07 11:38:13;;;;;;;5.03;4.57;;;18.70;60.10;;;;;;5017930;28;20683;-88
2023/10/07 11:40:39;;;;;;;4.03;3.05;;;18.80;59.10;;;;;;5019220;28;20110;-89
2023/10/07 11:43:08;;;;;;;4.07;3.08;;;18.80;57.40;;;;;;4998904;28;20026;-88
2023/10/07 11:45:35;;;;;;;4.00;3.50;;;18.70;56.20;;;;;;5002358;28;20495;-87
2023/10/07 11:48:05;;;;;;;3.65;3.35;;;18.70;57.30;;;;;;5014974;28;20150;-89
2023/10/07 11:50:38;;;;;;;4.38;3.97;;;18.70;58.40;;;;;;5020064;28;20022;-86
2023/10/07 11:53:05;;;;;;;3.33;3.03;;;18.80;56.30;;;;;;5019617;28;20057;-87
2023/10/07 11:55:31;;;;;;;4.32;3.97;;;19.00;56.60;;;;;;5005899;28;20088;-88
2023/10/07 11:58:01;;;;;;;5.20;3.03;;;19.20;57.00;;;;;;5019495;28;20048;-85
2023/10/07 12:00:34;;;;;;;5.22;3.47;;;19.40;54.90;;;;;;5016376;28;20026;-87
2023/10/07 12:03:06;;;;;;;3.08;2.00;;;19.40;55.00;;;;;;5017141;28;20395;-88
2023/10/07 12:05:32;;;;;;;5.40;3.45;;;19.60;57.30;;;;;;5018599;28;20017;-86
2023/10/07 12:08:02;;;;;;;4.40;3.90;;;19.50;56.30;;;;;;5016271;28;20046;-86
2023/10/07 12:10:36;;;;;;;3.25;3.00;;;19.40;56.10;;;;;;5015058;28;20109;-88
2023/10/07 12:13:03;;;;;;;4.40;3.35;;;19.30;57.30;;;;;;5016653;28;20026;-86
2023/10/07 12:15:29;;;;;;;3.83;3.53;;;19.20;57.40;;;;;;4998221;28;20057;-88
2023/10/07 12:17:55;;;;;;;3.95;2.55;;;19.30;57.90;;;;;;5015351;28;20044;-88
2023/10/07 12:20:22;;;;;;;4.47;3.78;;;19.60;56.70;;;;;;5016178;28;20034;-90
2023/10/07 12:22:48;;;;;;;4.38;2.95;;;19.60;56.20;;;;;;5015782;28;20030;-89
2023/10/07 12:25:16;;;;;;;3.92;3.00;;;19.70;56.00;;;;;;5015660;28;20396;-90
2023/10/07 12:27:49;;;;;;;4.10;2.60;;;19.70;55.00;;;;;;4996465;28;20021;-91
2023/10/07 12:30:22;;;;;;;3.70;2.53;;;19.70;56.10;;;;;;5012352;28;20086;-88
2023/10/07 12:32:51;;;;;;;3.38;2.55;;;19.80;55.50;;;;;;5008083;28;20031;-91
2023/10/07 12:35:18;;;;;;;5.55;2.47;;;19.80;54.50;;;;;;5014922;28;20032;-90
2023/10/07 12:37:47;;;;;;;3.60;3.13;;;19.80;55.20;;;;;;5013489;28;20033;-91
2023/10/07 12:40:14;;;;;;;3.95;3.08;;;20.00;54.40;;;;;;5016297;28;20113;-91
2023/10/07 12:42:41;;;;;;;3.65;2.70;;;20.10;54.80;;;;;;5010948;28;20025;-90
2023/10/07 12:45:11;;;;;;;2.97;2.60;;;20.10;54.50;;;;;;4988481;28;20042;-90
2023/10/07 12:47:39;;;;;;;4.75;3.42;;;20.00;54.70;;;;;;5018574;28;20017;-91
2023/10/07 12:50:24;;;;;;;3.40;3.10;;;20.10;53.90;;;;;;5000617;28;20022;-91
2023/10/07 12:53:10;;;;;;;3.40;3.10;;;20.40;54.00;;;;;;5015548;28;20147;-91
2023/10/07 12:55:36;;;;;;;3.92;3.63;;;20.90;53.50;;;;;;5008240;28;20029;-91
2023/10/07 12:58:06;;;;;;;3.08;2.70;;;21.40;52.10;;;;;;5010956;28;20053;-89
2023/10/07 13:00:33;;;;;;;3.17;2.85;;;21.90;49.80;;;;;;5013555;28;20522;-90
2023/10/07 13:03:04;;;;;;;3.00;2.78;;;22.90;48.10;;;;;;5009707;28;20036;-91
2023/10/07 13:05:32;;;;;;;3.92;3.53;;;23.40;43.30;;;;;;5017107;28;20028;-90
2023/10/07 13:07:59;;;;;;;5.43;3.17;;;23.30;42.50;;;;;;5015846;28;20022;-91
2023/10/07 13:10:26;;;;;;;3.83;3.13;;;23.40;42.20;;;;;;5019375;28;20508;-90
2023/10/07 13:12:55;;;;;;;4.22;3.85;;;23.60;42.30;;;;;;5018495;28;20312;-89
2023/10/07 13:15:30;;;;;;;2.85;2.63;;;23.30;43.10;;;;;;5026089;28;20014;-91
2023/10/07 13:17:58;;;;;;;3.00;2.58;;;23.30;44.10;;;;;;5032956;28;20082;-91
2023/10/07 13:20:26;;;;;;;3.55;2.47;;;23.90;41.90;;;;;;5014386;28;20032;-91
2023/10/07 13:22:57;;;;;;;3.00;2.58;;;23.80;41.60;;;;;;5016410;28;20030;-89
2023/10/07 13:25:24;;;;;;;3.97;2.20;;;24.30;41.30;;;;;;4997618;28;20026;-91
2023/10/07 13:27:50;;;;;;;3.90;1.73;;;23.90;41.70;;;;;;4997057;28;20428;-91
2023/10/07 13:30:17;;;;;;;3.38;3.00;;;23.60;42.10;;;;;;4990150;28;20053;-90
2023/10/07 13:32:46;;;;;;;3.22;2.42;;;22.90;43.90;;;;;;5016561;28;20030;-91
2023/10/07 13:35:15;;;;;;;3.20;2.55;;;22.60;44.20;;;;;;5014883;28;20109;-90
2023/10/07 13:37:43;;;;;;;5.78;3.10;;;22.30;44.70;;;;;;5022867;28;20057;-89
2023/10/07 13:40:15;;;;;;;4.85;2.25;;;21.80;46.80;;;;;;5029357;28;20045;-90
2023/10/07 13:42:52;;;;;;;3.92;2.40;;;22.10;47.30;;;;;;5023609;28;20029;-90
2023/10/07 13:45:23;;;;;;;3.22;2.78;;;22.70;45.00;;;;;;5020386;28;20460;-91
2023/10/07 13:47:50;;;;;;;3.58;2.95;;;23.10;43.80;;;;;;4995447;28;20109;-92
2023/10/07 13:50:20;;;;;;;4.30;3.55;;;23.80;41.70;;;;;;5019713;28;20030;-91
2023/10/07 13:52:50;;;;;;;2.85;2.65;;;24.50;40.80;;;;;;5018366;28;20563;-90
2023/10/07 13:58:09;;;;;;;3.72;3.13;;;24.50;38.90;;;;;;5016650;28;20030;-89
2023/10/07 14:03:05;;;;;;;3.83;2.17;;;25.00;38.30;;;;;;5018490;28;19909;-90